createdAt,value
2017-10-10T00:23:05.659Z,0.00
2017-10-10T02:14:08.731Z,180.00
2017-10-10T02:17:30.087Z,180.00
2017-10-10T02:18:23.221Z,180.00
2017-10-10T02:21:11.764Z,180.00
2017-10-10T02:24:42.373Z,180.00
2017-10-10T02:45:09.631Z,45.00
2017-10-10T02:45:50.931Z,45.00
2017-10-10T02:58:34.881Z,45.00
2017-10-10T03:01:51.674Z,45.00
2017-10-10T03:08:52.395Z,45.00
2017-10-10T03:11:06.174Z,45.00
2017-10-10T03:44:53.608Z,0.00
2017-10-10T03:45:28.800Z,315.00
2017-10-10T04:02:28.785Z,67.50
2017-10-10T04:02:44.750Z,45.00
2017-10-10T04:02:53.170Z,45.00
2017-10-10T04:03:07.062Z,45.00
2017-10-10T04:03:23.626Z,45.00
2017-10-10T04:06:19.217Z,180.00
2017-10-10T04:11:29.952Z,90.00
2017-10-10T04:11:56.420Z,90.00
2017-10-10T04:12:19.179Z,112.50
2017-10-10T04:14:56.698Z,180.00
2017-10-10T04:15:10.925Z,180.00
2017-10-10T04:15:23.580Z,180.00
2017-10-10T04:15:47.437Z,180.00
2017-10-10T04:15:54.566Z,315.00
2017-10-10T04:16:02.710Z,0.00
2017-10-10T04:16:16.602Z,180.00
2017-10-10T04:16:32.449Z,180.00
2017-10-10T04:16:40.582Z,90.00
2017-10-10T04:16:59.826Z,180.00
2017-10-10T04:17:23.529Z,90.00
2017-10-10T04:17:32.438Z,90.00
2017-10-10T04:17:40.977Z,135.00
2017-10-10T04:18:05.155Z,135.00
2017-10-10T04:18:22.038Z,135.00
2017-10-10T04:18:29.833Z,135.00
2017-10-10T04:18:37.758Z,135.00
2017-10-10T04:18:52.870Z,135.00
2017-10-10T04:19:01.489Z,90.00
2017-10-10T04:19:18.766Z,112.50
2017-10-10T04:19:33.351Z,112.50
2017-10-10T04:19:44.297Z,112.50
2017-10-10T04:19:53.077Z,112.50
2017-10-10T04:20:01.439Z,135.00
2017-10-10T04:20:17.367Z,135.00
2017-10-10T04:20:36.771Z,135.00
2017-10-10T04:20:47.888Z,135.00
2017-10-10T04:21:08.314Z,135.00
2017-10-10T04:21:23.762Z,135.00
2017-10-10T04:21:39.184Z,135.00
2017-10-10T04:21:53.391Z,135.00
2017-10-10T04:22:01.914Z,135.00
2017-10-10T04:22:10.034Z,135.00
2017-10-10T04:22:18.379Z,135.00
2017-10-10T04:22:31.767Z,135.00
2017-10-10T04:22:58.030Z,135.00
2017-10-10T04:23:27.523Z,135.00
2017-10-10T04:23:47.350Z,135.00
2017-10-10T04:24:34.036Z,135.00
2017-10-10T04:24:41.770Z,135.00
2017-10-10T04:24:57.134Z,135.00
2017-10-10T04:25:05.434Z,135.00
2017-10-10T04:25:13.566Z,135.00
2017-10-10T04:25:21.917Z,135.00
2017-10-10T04:25:30.859Z,135.00
2017-10-10T04:25:38.622Z,135.00
2017-10-10T04:25:52.429Z,135.00
2017-10-10T04:26:06.393Z,135.00
2017-10-10T04:26:20.830Z,135.00
2017-10-10T04:26:47.238Z,135.00
2017-10-10T04:26:58.058Z,135.00
2017-10-10T04:27:11.527Z,225.00
2017-10-10T04:27:25.347Z,0.00
2017-10-10T04:27:34.077Z,0.00
2017-10-10T04:27:50.648Z,0.00
2017-10-10T04:28:31.313Z,0.00
2017-10-10T04:28:47.265Z,180.00
2017-10-10T04:29:04.417Z,180.00
2017-10-10T04:29:25.331Z,180.00
2017-10-10T04:30:09.646Z,180.00
2017-10-10T04:30:28.721Z,180.00
2017-10-10T04:30:36.750Z,180.00
2017-10-10T04:31:23.045Z,180.00
2017-10-10T04:31:30.850Z,180.00
2017-10-10T04:31:50.114Z,180.00
2017-10-10T04:32:08.695Z,180.00
2017-10-10T04:32:26.276Z,180.00
2017-10-10T04:32:39.600Z,180.00
2017-10-10T04:32:56.614Z,180.00
2017-10-10T04:33:11.729Z,180.00
2017-10-10T04:33:27.131Z,180.00
2017-10-10T04:33:34.919Z,180.00
2017-10-10T04:33:42.474Z,180.00
2017-10-10T04:34:03.867Z,180.00
2017-10-10T04:34:16.110Z,180.00
2017-10-10T04:34:23.345Z,180.00
2017-10-10T04:34:40.433Z,180.00
2017-10-10T04:34:56.402Z,180.00
2017-10-10T04:35:12.337Z,180.00
2017-10-10T04:35:26.513Z,180.00
2017-10-10T04:35:33.730Z,180.00
2017-10-10T04:35:42.093Z,180.00
2017-10-10T04:35:50.002Z,180.00
2017-10-10T04:35:58.162Z,180.00
2017-10-10T04:36:06.286Z,180.00
2017-10-10T04:36:22.190Z,180.00
2017-10-10T04:36:37.148Z,180.00
2017-10-10T04:36:45.730Z,45.00
2017-10-10T04:36:53.681Z,45.00
2017-10-10T04:37:01.816Z,45.00
2017-10-10T04:37:15.718Z,270.00
2017-10-10T04:37:35.679Z,225.00
2017-10-10T04:37:55.414Z,225.00
2017-10-10T04:38:09.328Z,225.00
2017-10-10T04:38:17.589Z,225.00
2017-10-10T04:38:31.970Z,225.00
2017-10-10T04:38:48.910Z,225.00
2017-10-10T04:38:56.318Z,225.00
2017-10-10T04:44:31.290Z,270.00
2017-10-10T04:57:16.801Z,45.00
2017-10-10T05:00:09.407Z,180.00
2017-10-10T05:00:16.806Z,180.00
2017-10-10T05:00:24.929Z,180.00
2017-10-10T05:00:33.050Z,180.00
2017-10-10T05:00:47.949Z,180.00
2017-10-10T05:00:55.153Z,180.00
2017-10-10T05:01:03.303Z,180.00
2017-10-10T05:01:11.446Z,180.00
2017-10-10T05:01:19.586Z,180.00
2017-10-10T05:01:33.980Z,157.50
2017-10-10T05:01:41.686Z,225.00
2017-10-10T05:02:07.562Z,180.00
2017-10-10T05:02:15.693Z,180.00
2017-10-10T05:02:23.826Z,135.00
2017-10-10T05:02:31.954Z,180.00
2017-10-10T05:02:40.090Z,180.00
2017-10-10T05:02:48.235Z,180.00
2017-10-10T05:03:03.627Z,180.00
2017-10-10T05:03:11.933Z,180.00
2017-10-10T05:03:20.079Z,180.00
2017-10-10T05:03:29.809Z,180.00
2017-10-10T05:03:37.946Z,180.00
2017-10-10T05:03:46.085Z,180.00
2017-10-10T05:03:54.231Z,180.00
2017-10-10T05:04:02.550Z,180.00
2017-10-10T05:04:10.493Z,180.00
2017-10-10T05:04:18.998Z,180.00
2017-10-10T05:04:26.773Z,180.00
2017-10-10T05:04:35.101Z,180.00
2017-10-10T05:04:53.986Z,180.00
2017-10-10T05:05:01.802Z,180.00
2017-10-10T05:05:10.154Z,180.00
2017-10-10T05:05:26.046Z,180.00
2017-10-10T05:05:38.909Z,45.00
2017-10-10T05:05:46.027Z,157.50
2017-10-10T05:05:54.153Z,45.00
2017-10-10T05:06:02.287Z,270.00
2017-10-10T05:06:10.425Z,202.50
2017-10-10T05:06:18.582Z,180.00
2017-10-10T05:06:26.700Z,225.00
2017-10-10T05:06:34.846Z,225.00
2017-10-10T05:06:48.229Z,0.00
2017-10-10T05:06:55.338Z,45.00
2017-10-10T05:07:03.479Z,180.00
2017-10-10T05:07:11.625Z,180.00
2017-10-10T05:07:19.754Z,180.00
2017-10-10T05:07:27.888Z,180.00
2017-10-10T05:07:36.030Z,180.00
2017-10-10T05:07:44.161Z,180.00
2017-10-10T05:07:52.293Z,180.00
2017-10-10T05:08:00.453Z,180.00
2017-10-10T05:08:08.589Z,90.00
2017-10-10T05:08:16.715Z,90.00
2017-10-10T05:08:24.849Z,45.00
2017-10-10T05:08:32.987Z,180.00
2017-10-10T05:08:41.126Z,202.50
2017-10-10T05:08:49.261Z,180.00
2017-10-10T05:08:57.411Z,180.00
2017-10-10T05:09:05.537Z,180.00
2017-10-10T05:09:13.668Z,337.50
2017-10-10T05:09:21.809Z,22.50
2017-10-10T05:09:29.946Z,45.00
2017-10-10T05:09:38.089Z,157.50
2017-10-10T05:09:46.233Z,157.50
2017-10-10T05:09:54.558Z,157.50
2017-10-10T05:10:08.504Z,135.00
2017-10-10T05:10:16.610Z,90.00
2017-10-10T05:10:24.745Z,90.00
2017-10-10T05:10:32.882Z,90.00
2017-10-10T05:10:41.021Z,135.00
2017-10-10T05:10:49.166Z,225.00
2017-10-10T05:10:57.294Z,225.00
2017-10-10T05:11:05.431Z,225.00
2017-10-10T05:11:13.577Z,135.00
2017-10-10T05:11:21.714Z,90.00
2017-10-10T05:11:29.862Z,180.00
2017-10-10T05:11:41.742Z,180.00
2017-10-10T05:11:50.342Z,180.00
2017-10-10T05:11:58.483Z,180.00
2017-10-10T05:12:06.822Z,180.00
2017-10-10T05:12:14.768Z,180.00
2017-10-10T05:12:22.893Z,180.00
2017-10-10T05:12:31.027Z,180.00
2017-10-10T05:12:39.171Z,180.00
2017-10-10T05:12:47.306Z,180.00
2017-10-10T05:12:55.445Z,180.00
2017-10-10T05:13:03.581Z,180.00
2017-10-10T05:13:11.726Z,180.00
2017-10-10T05:13:19.858Z,180.00
2017-10-10T05:13:28.003Z,225.00
2017-10-10T05:13:36.129Z,225.00
2017-10-10T05:13:44.261Z,225.00
2017-10-10T05:13:52.414Z,225.00
2017-10-10T05:14:00.561Z,225.00
2017-10-10T05:14:08.686Z,157.50
2017-10-10T05:14:22.563Z,135.00
2017-10-10T05:14:37.198Z,135.00
2017-10-10T05:14:45.322Z,135.00
2017-10-10T05:14:53.448Z,135.00
2017-10-10T05:15:01.598Z,135.00
2017-10-10T05:15:09.729Z,135.00
2017-10-10T05:15:17.870Z,135.00
2017-10-10T05:15:26.010Z,90.00
2017-10-10T05:15:34.150Z,90.00
2017-10-10T05:15:43.873Z,90.00
2017-10-10T05:15:52.214Z,90.00
2017-10-10T05:16:00.166Z,202.50
2017-10-10T05:16:09.893Z,180.00
2017-10-10T05:16:18.224Z,225.00
2017-10-10T05:16:26.186Z,225.00
2017-10-10T05:16:35.918Z,225.00
2017-10-10T05:16:44.049Z,225.00
2017-10-10T05:16:52.194Z,0.00
2017-10-10T05:17:00.322Z,0.00
2017-10-10T05:17:08.445Z,0.00
2017-10-10T05:17:16.590Z,0.00
2017-10-10T05:17:24.731Z,0.00
2017-10-10T05:17:37.118Z,135.00
2017-10-10T05:17:50.488Z,112.50
2017-10-10T05:17:59.197Z,90.00
2017-10-10T05:18:07.330Z,225.00
2017-10-10T05:18:15.466Z,135.00
2017-10-10T05:18:26.866Z,135.00
2017-10-10T05:18:34.366Z,135.00
2017-10-10T05:18:42.711Z,135.00
2017-10-10T05:18:55.893Z,90.00
2017-10-10T05:19:03.183Z,90.00
2017-10-10T05:19:11.154Z,90.00
2017-10-10T05:19:19.281Z,90.00
2017-10-10T05:19:27.433Z,90.00
2017-10-10T05:19:35.770Z,90.00
2017-10-10T05:19:43.706Z,90.00
2017-10-10T05:19:51.838Z,90.00
2017-10-10T05:19:59.970Z,90.00
2017-10-10T05:20:08.106Z,90.00
2017-10-10T05:20:16.254Z,90.00
2017-10-10T05:20:25.982Z,90.00
2017-10-10T05:20:34.113Z,90.00
2017-10-10T05:20:42.277Z,90.00
2017-10-10T05:20:56.181Z,90.00
2017-10-10T05:21:04.362Z,90.00
2017-10-10T05:21:12.494Z,225.00
2017-10-10T05:21:20.633Z,225.00
2017-10-10T05:21:28.795Z,225.00
2017-10-10T05:21:36.910Z,225.00
2017-10-10T05:21:45.187Z,180.00
2017-10-10T05:21:53.191Z,180.00
2017-10-10T05:22:01.577Z,225.00
2017-10-10T05:22:09.466Z,180.00
2017-10-10T05:22:17.605Z,180.00
2017-10-10T05:22:25.730Z,180.00
2017-10-10T05:22:33.895Z,0.00
2017-10-10T05:22:42.023Z,180.00
2017-10-10T05:22:50.149Z,135.00
2017-10-10T05:22:58.294Z,135.00
2017-10-10T05:23:08.033Z,90.00
2017-10-10T05:23:16.162Z,90.00
2017-10-10T05:23:24.310Z,225.00
2017-10-10T05:23:32.441Z,180.00
2017-10-10T05:23:40.572Z,270.00
2017-10-10T05:23:48.729Z,270.00
2017-10-10T05:23:56.866Z,270.00
2017-10-10T05:24:04.986Z,270.00
2017-10-10T05:24:13.121Z,22.50
2017-10-10T05:24:21.258Z,0.00
2017-10-10T05:24:29.398Z,0.00
2017-10-10T05:24:37.543Z,0.00
2017-10-10T05:24:45.677Z,0.00
2017-10-10T05:24:54.006Z,90.00
2017-10-10T05:25:01.949Z,90.00
2017-10-10T05:25:10.090Z,90.00
2017-10-10T05:25:18.221Z,90.00
2017-10-10T05:25:26.365Z,90.00
2017-10-10T05:25:41.279Z,45.00
2017-10-10T05:25:53.815Z,90.00
2017-10-10T05:26:02.585Z,225.00
2017-10-10T05:26:10.565Z,225.00
2017-10-10T05:26:18.714Z,225.00
2017-10-10T05:26:26.837Z,225.00
2017-10-10T05:26:34.985Z,225.00
2017-10-10T05:26:44.909Z,0.00
2017-10-10T05:26:52.850Z,45.00
2017-10-10T05:27:00.991Z,45.00
2017-10-10T05:27:09.129Z,45.00
2017-10-10T05:27:17.269Z,135.00
2017-10-10T05:27:30.162Z,135.00
2017-10-10T05:27:37.758Z,135.00
2017-10-10T05:27:45.905Z,90.00
2017-10-10T05:27:54.051Z,90.00
2017-10-10T05:28:09.117Z,90.00
2017-10-10T05:28:17.734Z,90.00
2017-10-10T05:28:25.877Z,90.00
2017-10-10T05:28:40.775Z,90.00
2017-10-10T05:28:47.989Z,90.00
2017-10-10T05:28:56.121Z,90.00
2017-10-10T05:29:05.862Z,45.00
2017-10-10T05:29:13.998Z,45.00
2017-10-10T05:29:22.298Z,45.00
2017-10-10T05:29:30.270Z,45.00
2017-10-10T05:29:38.393Z,45.00
2017-10-10T05:29:51.296Z,45.00
2017-10-10T05:29:58.910Z,45.00
2017-10-10T05:30:07.041Z,45.00
2017-10-10T05:30:15.169Z,45.00
2017-10-10T05:30:23.321Z,45.00
2017-10-10T05:30:31.634Z,45.00
2017-10-10T05:30:39.597Z,45.00
2017-10-10T05:30:47.923Z,45.00
2017-10-10T05:30:55.865Z,90.00
2017-10-10T05:31:05.617Z,90.00
2017-10-10T05:31:13.735Z,45.00
2017-10-10T05:31:21.878Z,45.00
2017-10-10T05:31:30.014Z,180.00
2017-10-10T05:31:38.174Z,180.00
2017-10-10T05:31:46.299Z,180.00
2017-10-10T05:31:54.434Z,180.00
2017-10-10T05:32:02.566Z,180.00
2017-10-10T05:32:10.698Z,180.00
2017-10-10T05:32:18.850Z,180.00
2017-10-10T05:32:28.577Z,180.00
2017-10-10T05:32:36.710Z,180.00
2017-10-10T05:32:44.858Z,180.00
2017-10-10T05:32:54.773Z,180.00
2017-10-10T05:33:02.713Z,180.00
2017-10-10T05:33:10.859Z,180.00
2017-10-10T05:33:19.010Z,180.00
2017-10-10T05:33:28.734Z,180.00
2017-10-10T05:33:36.886Z,180.00
2017-10-10T05:33:45.023Z,90.00
2017-10-10T05:33:53.160Z,90.00
2017-10-10T05:34:09.634Z,90.00
2017-10-10T05:34:16.866Z,157.50
2017-10-10T05:34:25.374Z,225.00
2017-10-10T05:34:33.130Z,225.00
2017-10-10T05:34:51.422Z,247.50
2017-10-10T05:35:59.475Z,315.00
2017-10-10T05:36:07.227Z,90.00
2017-10-10T05:36:15.368Z,90.00
2017-10-10T05:36:23.517Z,90.00
2017-10-10T05:36:31.642Z,90.00
2017-10-10T05:36:41.589Z,90.00
2017-10-10T05:36:49.519Z,90.00
2017-10-10T05:36:57.649Z,90.00
2017-10-10T05:37:05.785Z,90.00
2017-10-10T05:37:13.922Z,135.00
2017-10-10T05:37:22.070Z,225.00
2017-10-10T05:37:35.473Z,225.00
2017-10-10T05:37:51.245Z,90.00
2017-10-10T05:38:04.533Z,90.00
2017-10-10T05:38:12.657Z,90.00
2017-10-10T05:39:20.443Z,90.00
2017-10-10T05:39:28.018Z,90.00
2017-10-10T05:39:36.158Z,90.00
2017-10-10T05:39:44.280Z,90.00
2017-10-10T05:39:52.423Z,90.00
2017-10-10T05:40:00.553Z,90.00
2017-10-10T05:40:08.698Z,90.00
2017-10-10T05:40:16.842Z,90.00
2017-10-10T05:40:24.962Z,90.00
2017-10-10T05:40:33.105Z,90.00
2017-10-10T05:40:41.238Z,90.00
2017-10-10T05:40:53.031Z,90.00
2017-10-10T05:41:07.135Z,90.00
2017-10-10T05:41:15.238Z,90.00
2017-10-10T05:41:29.650Z,90.00
2017-10-10T05:41:37.353Z,90.00
2017-10-10T05:41:45.522Z,90.00
2017-10-10T05:41:53.633Z,90.00
2017-10-10T05:42:02.023Z,90.00
2017-10-10T05:42:10.096Z,90.00
2017-10-10T05:42:18.043Z,90.00
2017-10-10T05:42:26.176Z,90.00
2017-10-10T05:42:34.321Z,90.00
2017-10-10T05:42:42.474Z,90.00
2017-10-10T05:42:58.387Z,90.00
2017-10-10T05:43:06.161Z,90.00
2017-10-10T05:43:14.311Z,90.00
2017-10-10T05:43:26.196Z,90.00
2017-10-10T05:43:34.803Z,90.00
2017-10-10T05:43:43.178Z,90.00
2017-10-10T05:43:51.250Z,90.00
2017-10-10T05:43:59.377Z,90.00
2017-10-10T05:44:07.346Z,90.00
2017-10-10T05:44:15.517Z,90.00
2017-10-10T05:44:23.622Z,90.00
2017-10-10T05:44:31.771Z,90.00
2017-10-10T05:44:39.893Z,90.00
2017-10-10T05:44:48.040Z,315.00
2017-10-10T05:44:56.197Z,270.00
2017-10-10T05:45:10.546Z,180.00
2017-10-10T05:45:18.267Z,180.00
2017-10-10T05:45:26.410Z,180.00
2017-10-10T05:45:34.557Z,180.00
2017-10-10T05:45:42.692Z,180.00
2017-10-10T05:45:50.830Z,180.00
2017-10-10T05:45:58.958Z,180.00
2017-10-10T05:46:07.096Z,180.00
2017-10-10T05:46:21.999Z,180.00
2017-10-10T05:46:29.198Z,180.00
2017-10-10T05:46:39.122Z,157.50
2017-10-10T05:46:53.337Z,135.00
2017-10-10T05:47:01.033Z,135.00
2017-10-10T05:47:09.178Z,135.00
2017-10-10T05:47:17.305Z,135.00
2017-10-10T05:47:25.456Z,135.00
2017-10-10T05:47:33.601Z,135.00
2017-10-10T05:47:42.153Z,135.00
2017-10-10T05:47:49.854Z,135.00
2017-10-10T05:47:57.996Z,135.00
2017-10-10T05:48:06.129Z,135.00
2017-10-10T05:48:20.046Z,247.50
2017-10-10T05:48:28.246Z,225.00
2017-10-10T05:48:36.374Z,180.00
2017-10-10T05:48:44.519Z,180.00
2017-10-10T05:48:59.409Z,180.00
2017-10-10T05:49:06.614Z,180.00
2017-10-10T05:49:14.749Z,180.00
2017-10-10T05:49:22.895Z,225.00
2017-10-10T05:49:31.028Z,225.00
2017-10-10T05:49:45.423Z,225.00
2017-10-10T05:49:53.139Z,225.00
2017-10-10T05:50:01.270Z,225.00
2017-10-10T05:50:15.406Z,225.00
2017-10-10T05:50:25.122Z,225.00
2017-10-10T05:50:33.266Z,180.00
2017-10-10T05:50:41.406Z,180.00
2017-10-10T05:51:04.068Z,180.00
2017-10-10T05:51:12.215Z,180.00
2017-10-10T05:51:20.350Z,180.00
2017-10-10T05:51:28.697Z,180.00
2017-10-10T05:51:36.638Z,180.00
2017-10-10T05:51:48.022Z,180.00
2017-10-10T05:51:55.549Z,180.00
2017-10-10T05:52:03.662Z,180.00
2017-10-10T05:52:11.804Z,180.00
2017-10-10T05:52:25.182Z,180.00
2017-10-10T05:52:32.293Z,180.00
2017-10-10T05:52:40.626Z,180.00
2017-10-10T05:52:48.582Z,180.00
2017-10-10T05:52:56.721Z,180.00
2017-10-10T05:53:04.854Z,180.00
2017-10-10T05:53:12.979Z,180.00
2017-10-10T05:53:21.117Z,180.00
2017-10-10T05:53:29.266Z,180.00
2017-10-10T05:53:41.166Z,180.00
2017-10-10T05:53:49.769Z,180.00
2017-10-10T05:53:57.898Z,180.00
2017-10-10T05:54:06.241Z,180.00
2017-10-10T05:54:14.170Z,180.00
2017-10-10T05:54:22.330Z,180.00
2017-10-10T05:54:30.641Z,180.00
2017-10-10T05:54:42.348Z,180.00
2017-10-10T05:54:50.933Z,180.00
2017-10-10T05:54:59.101Z,180.00
2017-10-10T05:55:07.234Z,180.00
2017-10-10T05:55:15.373Z,180.00
2017-10-10T05:55:27.750Z,90.00
2017-10-10T05:55:36.070Z,90.00
2017-10-10T05:55:44.019Z,90.00
2017-10-10T05:55:52.147Z,90.00
2017-10-10T05:56:00.662Z,90.00
2017-10-10T05:56:08.423Z,90.00
2017-10-10T05:56:16.555Z,135.00
2017-10-10T05:56:24.702Z,135.00
2017-10-10T05:56:38.598Z,135.00
2017-10-10T05:56:46.998Z,135.00
2017-10-10T05:56:58.702Z,180.00
2017-10-10T05:57:11.548Z,180.00
2017-10-10T05:57:29.417Z,180.00
2017-10-10T05:57:36.843Z,157.50
2017-10-10T05:57:45.155Z,90.00
2017-10-10T05:58:01.854Z,90.00
2017-10-10T05:58:10.270Z,90.00
2017-10-10T05:58:21.669Z,90.00
2017-10-10T05:58:29.169Z,90.00
2017-10-10T05:58:37.311Z,90.00
2017-10-10T05:58:45.441Z,90.00
2017-10-10T05:58:53.594Z,90.00
2017-10-10T05:59:01.727Z,90.00
2017-10-10T05:59:09.854Z,90.00
2017-10-10T05:59:17.989Z,90.00
2017-10-10T05:59:30.382Z,90.00
2017-10-10T05:59:38.502Z,90.00
2017-10-10T05:59:46.798Z,90.00
2017-10-10T05:59:54.761Z,90.00
2017-10-10T06:00:02.903Z,90.00
2017-10-10T06:00:11.044Z,90.00
2017-10-10T06:00:20.769Z,90.00
2017-10-10T06:00:28.909Z,90.00
2017-10-10T06:00:41.805Z,90.00
2017-10-10T06:00:49.426Z,90.00
2017-10-10T06:00:57.547Z,90.00
2017-10-10T06:01:05.704Z,90.00
2017-10-10T06:01:14.025Z,90.00
2017-10-10T06:01:21.973Z,90.00
2017-10-10T06:01:30.111Z,90.00
2017-10-10T06:01:38.245Z,90.00
2017-10-10T06:01:46.378Z,90.00
2017-10-10T06:01:54.522Z,90.00
2017-10-10T06:02:02.658Z,90.00
2017-10-10T06:02:10.793Z,90.00
2017-10-10T06:02:18.933Z,90.00
2017-10-10T06:02:27.078Z,90.00
2017-10-10T06:02:38.967Z,90.00
2017-10-10T06:02:47.577Z,90.00
2017-10-10T06:02:55.722Z,90.00
2017-10-10T06:03:09.119Z,90.00
2017-10-10T06:03:16.218Z,90.00
2017-10-10T06:03:24.357Z,90.00
2017-10-10T06:03:39.450Z,90.00
2017-10-10T06:03:52.814Z,90.00
2017-10-10T06:04:00.430Z,90.00
2017-10-10T06:04:08.557Z,90.00
2017-10-10T06:04:22.451Z,90.00
2017-10-10T06:04:35.926Z,90.00
2017-10-10T06:04:44.833Z,90.00
2017-10-10T06:04:59.216Z,90.00
2017-10-10T06:05:06.896Z,90.00
2017-10-10T06:05:15.042Z,90.00
2017-10-10T06:05:23.382Z,90.00
2017-10-10T06:05:31.508Z,90.00
2017-10-10T06:05:39.447Z,90.00
2017-10-10T06:05:47.591Z,90.00
2017-10-10T06:06:04.546Z,90.00
2017-10-10T06:06:23.726Z,90.00
2017-10-10T06:06:32.247Z,90.00
2017-10-10T06:06:44.625Z,90.00
2017-10-10T06:06:52.741Z,90.00
2017-10-10T06:07:05.338Z,90.00
2017-10-10T06:07:13.237Z,90.00
2017-10-10T06:07:21.578Z,90.00
2017-10-10T06:07:29.501Z,90.00
2017-10-10T06:07:37.646Z,90.00
2017-10-10T06:07:49.354Z,90.00
2017-10-10T06:07:57.454Z,90.00
2017-10-10T06:08:17.334Z,180.00
2017-10-10T06:08:26.120Z,180.00
2017-10-10T06:08:34.086Z,180.00
2017-10-10T06:08:42.214Z,180.00
2017-10-10T06:08:50.541Z,180.00
2017-10-10T06:08:58.489Z,180.00
2017-10-10T06:09:06.632Z,180.00
2017-10-10T06:09:14.771Z,180.00
2017-10-10T06:09:22.951Z,180.00
2017-10-10T06:09:31.040Z,180.00
2017-10-10T06:09:39.169Z,180.00
2017-10-10T06:09:47.526Z,180.00
2017-10-10T06:09:55.453Z,180.00
2017-10-10T06:10:11.350Z,180.00
2017-10-10T06:10:19.158Z,180.00
2017-10-10T06:10:27.294Z,180.00
2017-10-10T06:10:35.430Z,180.00
2017-10-10T06:10:43.558Z,180.00
2017-10-10T06:10:56.977Z,45.00
2017-10-10T06:11:05.866Z,135.00
2017-10-10T06:11:15.405Z,135.00
2017-10-10T06:11:30.301Z,135.00
2017-10-10T06:11:37.519Z,135.00
2017-10-10T06:11:53.106Z,135.00
2017-10-10T06:12:01.209Z,135.00
2017-10-10T06:12:09.357Z,135.00
2017-10-10T06:12:17.481Z,135.00
2017-10-10T06:12:25.615Z,135.00
2017-10-10T06:12:33.759Z,180.00
2017-10-10T06:12:41.897Z,225.00
2017-10-10T06:12:50.060Z,225.00
2017-10-10T06:12:58.359Z,225.00
2017-10-10T06:13:13.061Z,180.00
2017-10-10T06:13:20.266Z,90.00
2017-10-10T06:13:28.608Z,90.00
2017-10-10T06:13:48.394Z,90.00
2017-10-10T06:13:56.911Z,90.00
2017-10-10T06:14:05.043Z,90.00
2017-10-10T06:14:13.379Z,90.00
2017-10-10T06:14:21.315Z,90.00
2017-10-10T06:14:29.454Z,90.00
2017-10-10T06:14:42.350Z,90.00
2017-10-10T06:14:49.950Z,90.00
2017-10-10T06:15:15.726Z,90.00
2017-10-10T06:15:28.199Z,90.00
2017-10-10T06:15:35.810Z,90.00
2017-10-10T06:15:43.760Z,90.00
2017-10-10T06:15:58.141Z,90.00
2017-10-10T06:16:05.858Z,90.00
2017-10-10T06:16:13.989Z,90.00
2017-10-10T06:16:31.397Z,90.00
2017-10-10T06:16:42.772Z,90.00
2017-10-10T06:16:50.849Z,90.00
2017-10-10T06:16:59.153Z,90.00
2017-10-10T06:17:08.817Z,90.00
2017-10-10T06:17:18.985Z,0.00
2017-10-10T06:17:26.381Z,0.00
2017-10-10T06:17:34.518Z,0.00
2017-10-10T06:17:42.850Z,0.00
2017-10-10T06:17:50.786Z,0.00
2017-10-10T06:18:03.198Z,0.00
2017-10-10T06:18:11.288Z,45.00
2017-10-10T06:18:19.438Z,45.00
2017-10-10T06:18:32.313Z,45.00
2017-10-10T06:18:39.947Z,45.00
2017-10-10T06:18:52.823Z,45.00
2017-10-10T06:19:05.174Z,45.00
2017-10-10T06:19:13.002Z,45.00
2017-10-10T06:19:20.946Z,0.00
2017-10-10T06:19:35.862Z,315.00
2017-10-10T06:19:43.037Z,315.00
2017-10-10T06:19:51.178Z,315.00
2017-10-10T06:20:07.637Z,315.00
2017-10-10T06:20:21.805Z,315.00
2017-10-10T06:20:36.441Z,315.00
2017-10-10T06:20:44.546Z,315.00
2017-10-10T06:20:52.874Z,315.00
2017-10-10T06:21:00.824Z,315.00
2017-10-10T06:21:13.209Z,315.00
2017-10-10T06:21:21.319Z,315.00
2017-10-10T06:21:29.657Z,315.00
2017-10-10T06:21:42.357Z,45.00
2017-10-10T06:21:49.966Z,135.00
2017-10-10T06:21:58.086Z,135.00
2017-10-10T06:22:06.238Z,135.00
2017-10-10T06:22:20.150Z,135.00
2017-10-10T06:22:28.338Z,135.00
2017-10-10T06:22:37.046Z,135.00
2017-10-10T06:22:44.798Z,135.00
2017-10-10T06:22:52.738Z,135.00
2017-10-10T06:23:09.642Z,135.00
2017-10-10T06:23:18.425Z,135.00
2017-10-10T06:23:26.194Z,135.00
2017-10-10T06:23:38.962Z,135.00
2017-10-10T06:23:46.687Z,135.00
2017-10-10T06:23:58.587Z,135.00
2017-10-10T06:24:07.181Z,315.00
2017-10-10T06:24:20.782Z,225.00
2017-10-10T06:24:29.285Z,225.00
2017-10-10T06:24:48.429Z,225.00
2017-10-10T06:24:56.333Z,225.00
2017-10-10T06:25:04.466Z,225.00
2017-10-10T06:25:18.766Z,225.00
2017-10-10T06:25:26.954Z,225.00
2017-10-10T06:25:45.678Z,225.00
2017-10-10T06:25:57.270Z,225.00
2017-10-10T06:26:10.839Z,225.00
2017-10-10T06:26:31.728Z,225.00
2017-10-10T06:26:39.145Z,225.00
2017-10-10T06:26:50.545Z,225.00
2017-10-10T06:26:58.044Z,225.00
2017-10-10T06:27:06.177Z,225.00
2017-10-10T06:27:21.290Z,180.00
2017-10-10T06:27:29.874Z,180.00
2017-10-10T06:27:38.023Z,180.00
2017-10-10T06:27:57.282Z,180.00
2017-10-10T06:28:05.301Z,180.00
2017-10-10T06:28:13.062Z,180.00
2017-10-10T06:28:21.201Z,180.00
2017-10-10T06:28:29.342Z,180.00
2017-10-10T06:28:46.238Z,180.00
2017-10-10T06:28:54.626Z,180.00
2017-10-10T06:29:02.765Z,180.00
2017-10-10T06:29:10.910Z,180.00
2017-10-10T06:29:19.050Z,90.00
2017-10-10T06:29:27.189Z,90.00
2017-10-10T06:29:40.251Z,90.00
2017-10-10T06:29:48.046Z,90.00
2017-10-10T06:29:55.813Z,90.00
2017-10-10T06:30:09.198Z,90.00
2017-10-10T06:30:16.516Z,90.00
2017-10-10T06:30:24.662Z,90.00
2017-10-10T06:30:32.790Z,90.00
2017-10-10T06:30:44.686Z,135.00
2017-10-10T06:30:57.051Z,135.00
2017-10-10T06:31:12.417Z,45.00
2017-10-10T06:31:21.046Z,45.00
2017-10-10T06:31:29.169Z,225.00
2017-10-10T06:31:37.290Z,180.00
2017-10-10T06:31:53.173Z,225.00
2017-10-10T06:32:12.434Z,112.50
2017-10-10T06:32:27.129Z,135.00
2017-10-10T06:32:35.329Z,135.00
2017-10-10T06:32:50.404Z,135.00
2017-10-10T06:32:59.018Z,135.00
2017-10-10T06:33:10.430Z,45.00
2017-10-10T06:33:17.922Z,157.50
2017-10-10T06:33:34.010Z,135.00
2017-10-10T06:33:41.626Z,135.00
2017-10-10T06:33:58.678Z,135.00
2017-10-10T06:34:06.931Z,135.00
2017-10-10T06:34:15.445Z,135.00
2017-10-10T06:34:32.961Z,135.00
2017-10-10T06:34:42.470Z,45.00
2017-10-10T06:34:52.372Z,45.00
2017-10-10T06:35:07.078Z,45.00
2017-10-10T06:35:18.142Z,45.00
2017-10-10T06:35:26.946Z,45.00
2017-10-10T06:35:34.880Z,45.00
2017-10-10T06:35:43.026Z,45.00
2017-10-10T06:35:51.157Z,45.00
2017-10-10T06:35:59.306Z,45.00
2017-10-10T06:36:14.182Z,45.00
2017-10-10T06:36:21.590Z,45.00
2017-10-10T06:36:34.782Z,45.00
2017-10-10T06:36:45.669Z,45.00
2017-10-10T06:36:54.249Z,45.00
2017-10-10T06:37:02.975Z,45.00
2017-10-10T06:37:10.533Z,45.00
2017-10-10T06:37:22.621Z,45.00
2017-10-10T06:37:31.238Z,45.00
2017-10-10T06:37:44.913Z,90.00
2017-10-10T06:37:53.145Z,225.00
2017-10-10T06:38:05.025Z,225.00
2017-10-10T06:38:20.905Z,225.00
2017-10-10T06:38:29.410Z,225.00
2017-10-10T06:38:44.286Z,225.00
2017-10-10T06:38:52.890Z,225.00
2017-10-10T06:39:01.222Z,225.00
2017-10-10T06:39:16.117Z,225.00
2017-10-10T06:39:33.450Z,90.00
2017-10-10T06:40:00.943Z,90.00
2017-10-10T06:40:12.134Z,90.00
2017-10-10T06:40:32.146Z,135.00
2017-10-10T06:40:59.264Z,135.00
2017-10-10T06:41:07.706Z,135.00
2017-10-10T06:41:16.054Z,135.00
2017-10-10T06:41:37.101Z,45.00
2017-10-10T06:41:44.525Z,45.00
2017-10-10T06:41:52.483Z,45.00
2017-10-10T06:42:00.614Z,45.00
2017-10-10T06:42:08.954Z,45.00
2017-10-10T06:42:24.571Z,45.00
2017-10-10T06:42:52.527Z,45.00
2017-10-10T06:43:09.593Z,45.00
2017-10-10T06:43:18.171Z,45.00
2017-10-10T06:43:31.861Z,45.00
2017-10-10T06:44:05.909Z,180.00
2017-10-10T06:44:15.426Z,180.00
2017-10-10T06:44:28.365Z,180.00
2017-10-10T06:44:46.850Z,315.00
2017-10-10T06:44:56.857Z,315.00